Time;durP1;ratioP1;P1;durP2;ratioP2;P2;SDS_P1;SDS_P2;PMS_P1;PMS_P2;Temp;Humidity;BMP_temperature;BMP_pressure;BME280_temperature;BME280_humidity;BME280_pressure;Samples;Min_cycle;Max_cycle;Signal;HPM_P1;HPM_P2
2022/08/18 00:01:33;;;;;;;9.35;4.47;;;;;;;;;;5041080;28;20044;-84
2022/08/18 00:03:59;;;;;;;7.55;4.18;;;;;;;;;;5041774;28;20044;-84
2022/08/18 00:06:25;;;;;;;11.90;4.20;;;;;;;;;;5024799;28;20029;-84
2022/08/18 00:08:50;;;;;;;12.15;4.30;;;;;;;;;;5045156;28;20029;-83
2022/08/18 00:11:16;;;;;;;9.15;3.92;;;;;;;;;;5042052;28;20035;-84
2022/08/18 00:13:41;;;;;;;8.45;4.20;;;;;;;;;;5042071;28;20030;-84
2022/08/18 00:16:07;;;;;;;7.25;4.15;;;;;;;;;;5042150;28;20037;-84
2022/08/18 00:18:32;;;;;;;7.57;4.30;;;;;;;;;;5040186;28;20091;-84
2022/08/18 00:20:58;;;;;;;6.55;4.20;;;;;;;;;;5041825;28;20073;-83
2022/08/18 00:23:23;;;;;;;6.50;4.20;;;;;;;;;;5040483;28;20163;-84
2022/08/18 00:25:49;;;;;;;6.68;4.63;;;;;;;;;;5042027;28;20037;-84
2022/08/18 00:28:14;;;;;;;5.60;4.03;;;;;;;;;;5041771;28;20025;-84
2022/08/18 00:30:40;;;;;;;7.38;4.53;;;;;;;;;;5040288;28;20482;-84
2022/08/18 00:33:05;;;;;;;9.13;4.05;;;;;;;;;;5041187;28;20079;-84
2022/08/18 00:35:37;;;;;;;8.57;4.20;;;;;;;;;;5040397;28;20060;-83
2022/08/18 00:38:05;;;;;;;7.13;4.38;;;;;;;;;;5040426;28;20112;-83
2022/08/18 00:40:43;;;;;;;9.43;3.72;;;;;;;;;;5040763;28;20043;-83
2022/08/18 00:43:18;;;;;;;6.07;3.63;;;;;;;;;;5041086;28;20044;-84
2022/08/18 00:45:44;;;;;;;7.80;3.83;;;;;;;;;;5041147;28;20029;-83
2022/08/18 00:48:12;;;;;;;5.80;4.13;;;;;;;;;;5040436;28;20029;-83
2022/08/18 00:50:48;;;;;;;7.20;4.20;;;;;;;;;;5040709;28;20088;-83
2022/08/18 00:53:21;;;;;;;8.23;4.13;;;;;;;;;;5039550;28;20064;-84
2022/08/18 00:55:49;;;;;;;7.38;4.18;;;;;;;;;;5040960;28;20060;-85
2022/08/18 00:58:23;;;;;;;5.32;4.03;;;;;;;;;;5039317;28;20160;-84
2022/08/18 01:00:50;;;;;;;6.70;4.10;;;;;;;;;;5038870;28;20048;-84
2022/08/18 01:03:19;;;;;;;8.75;4.13;;;;;;;;;;5039021;28;20078;-85
2022/08/18 01:05:58;;;;;;;4.68;4.07;;;;;;;;;;5039164;28;20040;-85
2022/08/18 01:08:25;;;;;;;7.90;4.20;;;;;;;;;;5040137;28;20041;-84
2022/08/18 01:10:51;;;;;;;6.65;4.20;;;;;;;;;;5038794;28;20033;-84
2022/08/18 01:13:17;;;;;;;6.97;3.90;;;;;;;;;;5040283;28;20044;-83
2022/08/18 01:15:42;;;;;;;6.78;4.10;;;;;;;;;;5038650;28;20037;-84
2022/08/18 01:24:03;;;;;;;;;;;;;;;;;;5041827;28;20036;-81
2022/08/18 01:26:30;;;;;;;9.10;4.30;;;;;;;;;;5039972;28;20000;-84
2022/08/18 01:29:03;;;;;;;9.45;4.25;;;;;;;;;;5040426;28;20038;-83
2022/08/18 01:31:36;;;;;;;4.80;3.75;;;;;;;;;;5040467;28;20128;-83
2022/08/18 01:34:07;;;;;;;5.70;3.72;;;;;;;;;;5038614;28;20406;-83
2022/08/18 01:36:36;;;;;;;6.38;3.78;;;;;;;;;;5039319;28;20200;-83
2022/08/18 01:39:03;;;;;;;5.18;3.78;;;;;;;;;;5039357;28;20025;-83
2022/08/18 01:41:29;;;;;;;7.78;3.78;;;;;;;;;;5039675;28;20518;-84
2022/08/18 01:43:57;;;;;;;6.47;3.78;;;;;;;;;;5041019;28;20029;-82
2022/08/18 01:46:23;;;;;;;6.05;4.03;;;;;;;;;;5041622;28;20033;-83
2022/08/18 01:48:49;;;;;;;6.55;3.70;;;;;;;;;;5039172;28;20033;-83
2022/08/18 01:51:18;;;;;;;6.43;3.70;;;;;;;;;;5040105;28;20429;-83
2022/08/18 01:53:45;;;;;;;6.63;3.80;;;;;;;;;;5040389;28;20033;-83
2022/08/18 01:56:11;;;;;;;7.18;3.90;;;;;;;;;;5040462;28;20087;-84
2022/08/18 01:58:37;;;;;;;4.53;3.60;;;;;;;;;;5040605;28;20052;-83
2022/08/18 02:01:05;;;;;;;8.90;3.75;;;;;;;;;;5040683;28;20029;-83
2022/08/18 02:03:36;;;;;;;5.72;3.75;;;;;;;;;;5040782;28;20103;-83
2022/08/18 02:06:06;;;;;;;3.75;3.40;;;;;;;;;;5041196;28;20285;-83
2022/08/18 02:08:31;;;;;;;6.60;3.90;;;;;;;;;;5040308;28;20044;-83
2022/08/18 02:11:00;;;;;;;5.63;3.67;;;;;;;;;;5039911;28;20033;-82
2022/08/18 02:13:26;;;;;;;5.03;3.38;;;;;;;;;;5023546;28;20034;-84
2022/08/18 02:15:51;;;;;;;5.78;3.70;;;;;;;;;;5040183;28;20038;-84
2022/08/18 02:18:28;;;;;;;5.60;3.90;;;;;;;;;;5041781;28;20039;-83
2022/08/18 02:20:57;;;;;;;5.07;3.60;;;;;;;;;;5040841;28;20030;-83
2022/08/18 02:23:23;;;;;;;5.65;3.70;;;;;;;;;;5041268;28;20032;-84
2022/08/18 02:25:50;;;;;;;4.63;3.50;;;;;;;;;;5040439;28;20094;-83
2022/08/18 02:28:15;;;;;;;7.22;3.65;;;;;;;;;;5040292;28;20037;-83
2022/08/18 02:30:41;;;;;;;4.93;3.67;;;;;;;;;;5040686;28;20037;-84
2022/08/18 02:33:09;;;;;;;6.70;4.07;;;;;;;;;;5038310;28;20040;-83
2022/08/18 02:35:36;;;;;;;5.80;3.90;;;;;;;;;;5040116;28;20025;-83
2022/08/18 02:38:04;;;;;;;5.80;4.00;;;;;;;;;;5040420;28;20060;-84
2022/08/18 02:40:32;;;;;;;4.55;3.67;;;;;;;;;;5040258;28;20037;-84
2022/08/18 02:42:58;;;;;;;7.38;4.20;;;;;;;;;;5039580;28;20036;-84
2022/08/18 02:45:24;;;;;;;7.65;3.67;;;;;;;;;;5045630;28;20105;-83
2022/08/18 02:47:55;;;;;;;9.25;3.65;;;;;;;;;;5052087;28;20037;-83
2022/08/18 02:50:21;;;;;;;5.03;3.80;;;;;;;;;;5054444;28;20064;-83
2022/08/18 02:52:47;;;;;;;6.72;4.10;;;;;;;;;;5053937;28;20077;-83
2022/08/18 02:55:14;;;;;;;5.07;3.60;;;;;;;;;;5054251;28;20048;-83
2022/08/18 02:57:44;;;;;;;7.90;3.75;;;;;;;;;;5054481;28;20076;-82
2022/08/18 03:00:14;;;;;;;5.68;3.85;;;;;;;;;;5053062;28;20038;-83
2022/08/18 03:02:44;;;;;;;5.45;3.42;;;;;;;;;;5037096;28;20048;-83
2022/08/18 03:05:09;;;;;;;5.57;3.83;;;;;;;;;;5053807;28;20048;-83
2022/08/18 03:07:35;;;;;;;6.90;3.80;;;;;;;;;;5053674;28;20048;-83
2022/08/18 03:10:00;;;;;;;5.05;3.70;;;;;;;;;;5054019;28;20025;-83
2022/08/18 03:12:26;;;;;;;4.65;3.75;;;;;;;;;;5052838;28;20033;-83
2022/08/18 03:14:51;;;;;;;5.43;3.78;;;;;;;;;;5052982;28;20136;-82
2022/08/18 03:17:17;;;;;;;4.55;3.75;;;;;;;;;;5054454;28;20052;-83
2022/08/18 03:19:45;;;;;;;5.18;3.70;;;;;;;;;;5053623;28;20116;-83
2022/08/18 03:22:11;;;;;;;4.65;3.75;;;;;;;;;;5053216;28;20009;-83
2022/08/18 03:24:36;;;;;;;5.22;3.97;;;;;;;;;;5054505;28;20081;-83
2022/08/18 03:27:06;;;;;;;5.20;3.88;;;;;;;;;;5054095;28;20037;-82
2022/08/18 03:29:33;;;;;;;6.03;3.60;;;;;;;;;;5054172;28;20021;-83
2022/08/18 03:32:00;;;;;;;7.03;3.72;;;;;;;;;;5052046;28;20033;-83
2022/08/18 03:34:26;;;;;;;5.97;3.35;;;;;;;;;;5053436;28;20037;-83
2022/08/18 03:36:51;;;;;;;4.85;3.78;;;;;;;;;;5052763;28;20059;-83
2022/08/18 03:39:18;;;;;;;5.10;3.65;;;;;;;;;;5052609;28;20037;-83
2022/08/18 03:41:44;;;;;;;4.25;3.63;;;;;;;;;;5053015;28;20045;-83
2022/08/18 03:44:14;;;;;;;7.45;4.00;;;;;;;;;;5053179;28;20102;-82
2022/08/18 03:46:41;;;;;;;9.00;4.20;;;;;;;;;;5053157;28;20089;-82
2022/08/18 03:49:06;;;;;;;6.18;4.00;;;;;;;;;;5052666;28;20097;-82
2022/08/18 03:51:32;;;;;;;6.15;4.05;;;;;;;;;;5035817;28;20041;-82
2022/08/18 03:54:01;;;;;;;6.65;4.47;;;;;;;;;;5052681;28;20038;-82
2022/08/18 03:56:32;;;;;;;6.00;4.22;;;;;;;;;;5052990;28;20028;-83
2022/08/18 03:59:02;;;;;;;6.25;4.07;;;;;;;;;;5052707;28;20060;-82
2022/08/18 04:01:31;;;;;;;4.93;3.88;;;;;;;;;;5052593;28;20034;-82
2022/08/18 04:04:02;;;;;;;5.00;4.38;;;;;;;;;;5053018;28;20026;-82
2022/08/18 04:06:38;;;;;;;8.07;4.53;;;;;;;;;;5053429;28;20059;-83
2022/08/18 04:09:06;;;;;;;7.90;4.00;;;;;;;;;;5052652;28;20029;-82
2022/08/18 04:11:34;;;;;;;6.30;3.97;;;;;;;;;;5053273;28;20076;-83
2022/08/18 04:13:59;;;;;;;6.90;4.20;;;;;;;;;;5052399;28;20025;-82
2022/08/18 04:16:27;;;;;;;9.25;4.57;;;;;;;;;;5051740;28;20045;-82
2022/08/18 04:18:56;;;;;;;6.50;3.95;;;;;;;;;;5051943;28;20033;-82
2022/08/18 04:21:23;;;;;;;8.23;4.10;;;;;;;;;;5051750;28;20482;-83
2022/08/18 04:23:48;;;;;;;7.53;4.30;;;;;;;;;;5051374;28;20033;-83
2022/08/18 04:26:14;;;;;;;7.68;4.57;;;;;;;;;;5052211;28;20037;-83
2022/08/18 04:28:41;;;;;;;6.57;4.38;;;;;;;;;;5052094;28;20040;-83
2022/08/18 04:31:13;;;;;;;5.38;4.15;;;;;;;;;;5050776;28;20037;-82
2022/08/18 04:33:39;;;;;;;5.85;4.45;;;;;;;;;;5052816;28;20018;-82
2022/08/18 04:36:14;;;;;;;8.32;4.60;;;;;;;;;;5051430;28;20037;-82
2022/08/18 04:38:43;;;;;;;7.03;4.28;;;;;;;;;;5051275;28;20402;-83
2022/08/18 04:41:12;;;;;;;7.75;4.80;;;;;;;;;;5052247;28;20033;-82
2022/08/18 04:43:38;;;;;;;6.45;4.65;;;;;;;;;;5051829;28;20048;-83
2022/08/18 04:46:05;;;;;;;5.32;4.38;;;;;;;;;;5052130;28;20037;-83
2022/08/18 04:48:36;;;;;;;5.85;4.28;;;;;;;;;;5051732;28;20060;-82
2022/08/18 04:51:20;;;;;;;5.55;4.55;;;;;;;;;;5052092;28;20037;-82
2022/08/18 04:53:46;;;;;;;7.18;4.38;;;;;;;;;;5051833;28;20033;-83
2022/08/18 04:56:33;;;;;;;5.50;4.07;;;;;;;;;;5051675;28;20029;-83
2022/08/18 04:59:05;;;;;;;5.90;4.20;;;;;;;;;;5052415;28;20082;-82
2022/08/18 05:01:39;;;;;;;5.15;4.10;;;;;;;;;;5050821;28;20044;-83
2022/08/18 05:04:05;;;;;;;7.05;4.25;;;;;;;;;;5051293;28;20029;-82
2022/08/18 05:06:32;;;;;;;5.38;3.83;;;;;;;;;;5034580;28;20006;-83
2022/08/18 05:09:01;;;;;;;5.43;4.03;;;;;;;;;;5050767;28;20013;-83
2022/08/18 05:11:28;;;;;;;7.70;4.50;;;;;;;;;;5049249;28;20045;-83
2022/08/18 05:13:57;;;;;;;8.60;4.80;;;;;;;;;;5051807;28;20037;-83
2022/08/18 05:16:23;;;;;;;8.55;4.70;;;;;;;;;;5049869;28;20044;-84
2022/08/18 05:18:52;;;;;;;6.40;4.35;;;;;;;;;;5051555;28;20072;-83
2022/08/18 05:21:18;;;;;;;8.00;4.60;;;;;;;;;;5051259;28;20111;-82
2022/08/18 05:23:46;;;;;;;5.88;4.40;;;;;;;;;;5051140;28;20028;-83
2022/08/18 05:26:14;;;;;;;6.05;4.38;;;;;;;;;;5051320;28;20064;-83
2022/08/18 05:28:43;;;;;;;6.47;4.30;;;;;;;;;;5050880;28;20095;-83
2022/08/18 05:31:14;;;;;;;5.68;4.20;;;;;;;;;;5050976;28;20083;-83
2022/08/18 05:33:40;;;;;;;6.28;4.13;;;;;;;;;;5051468;28;20033;-83
2022/08/18 05:36:34;;;;;;;5.68;4.30;;;;;;;;;;5048952;28;20029;-82
2022/08/18 05:39:19;;;;;;;9.27;4.40;;;;;;;;;;5050433;28;20043;-83
2022/08/18 05:42:02;;;;;;;6.18;4.28;;;;;;;;;;5051395;28;20034;-83
2022/08/18 05:44:31;;;;;;;8.77;4.82;;;;;;;;;;5051352;28;20092;-83
2022/08/18 05:47:05;;;;;;;6.85;4.68;;;;;;;;;;5050906;28;20590;-82
2022/08/18 05:49:33;;;;;;;7.65;4.22;;;;;;;;;;5050056;28;20040;-81
2022/08/18 05:52:04;;;;;;;5.78;4.13;;;;;;;;;;5049976;28;20037;-82
2022/08/18 05:57:32;;;;;;;5.95;4.43;;;;;;;;;;5049005;28;20033;-81
2022/08/18 05:59:58;;;;;;;13.82;5.05;;;;;;;;;;5044538;28;20085;-82
2022/08/18 06:02:33;;;;;;;8.88;4.43;;;;;;;;;;5045081;28;20037;-81
2022/08/18 06:05:18;;;;;;;7.93;3.90;;;;;;;;;;5043004;28;20030;-81
2022/08/18 06:07:52;;;;;;;4.75;4.20;;;;;;;;;;5043394;28;20063;-81
2022/08/18 06:10:18;;;;;;;8.35;4.45;;;;;;;;;;5046420;28;20057;-82
2022/08/18 06:13:06;;;;;;;4.60;4.03;;;;;;;;;;5046219;28;20033;-82
2022/08/18 06:15:34;;;;;;;6.07;4.32;;;;;;;;;;5045817;28;20060;-82
2022/08/18 06:18:38;;;;;;;5.40;4.20;;;;;;;;;;5048197;28;20049;-82
2022/08/18 06:21:15;;;;;;;7.33;3.73;;;;;;;;;;5050697;28;20460;-81
2022/08/18 06:23:59;;;;;;;5.85;4.07;;;;;;;;;;5053594;28;20060;-81
2022/08/18 06:26:33;;;;;;;5.50;3.90;;;;;;;;;;5052453;28;20083;-81
2022/08/18 06:29:17;;;;;;;7.05;4.10;;;;;;;;;;5049088;28;20041;-81
2022/08/18 06:32:10;;;;;;;6.40;4.43;;;;;;;;;;5050506;28;20042;-81
2022/08/18 06:34:54;;;;;;;6.97;4.50;;;;;;;;;;5050927;28;20059;-82
2022/08/18 06:37:32;;;;;;;7.75;4.45;;;;;;;;;;5053318;28;20305;-82
2022/08/18 06:39:57;;;;;;;5.97;4.70;;;;;;;;;;5051428;28;20033;-83
2022/08/18 06:42:29;;;;;;;7.55;4.60;;;;;;;;;;5053154;28;20433;-82
2022/08/18 06:45:03;;;;;;;48.08;22.52;;;;;;;;;;5051409;28;20613;-82
2022/08/18 06:47:48;;;;;;;12.13;8.07;;;;;;;;;;5052690;28;20037;-84
2022/08/18 06:50:18;;;;;;;6.07;4.63;;;;;;;;;;5052540;28;20034;-83
2022/08/18 06:53:06;;;;;;;7.47;5.00;;;;;;;;;;5053527;28;20041;-82
2022/08/18 06:55:38;;;;;;;7.60;5.07;;;;;;;;;;5051324;28;20037;-82
2022/08/18 06:58:19;;;;;;;13.55;9.07;;;;;;;;;;5052904;28;20038;-82
2022/08/18 07:00:50;;;;;;;27.65;22.50;;;;;;;;;;5051070;28;20113;-82
2022/08/18 07:03:41;;;;;;;11.43;10.13;;;;;;;;;;5044771;28;20033;-84
2022/08/18 07:06:10;;;;;;;6.05;4.78;;;;;;;;;;5041798;28;20038;-84
2022/08/18 07:08:44;;;;;;;6.45;4.22;;;;;;;;;;5049034;28;20033;-83
2022/08/18 07:11:13;;;;;;;6.28;4.72;;;;;;;;;;5051938;28;20044;-83
2022/08/18 07:13:40;;;;;;;8.15;4.60;;;;;;;;;;5052140;28;20084;-83
2022/08/18 07:16:21;;;;;;;7.90;4.60;;;;;;;;;;5051731;28;20041;-83
2022/08/18 07:18:47;;;;;;;6.70;4.53;;;;;;;;;;5052550;28;20037;-83
2022/08/18 07:21:34;;;;;;;5.07;4.45;;;;;;;;;;5051964;28;20033;-87
2022/08/18 07:24:06;;;;;;;8.98;4.80;;;;;;;;;;5050877;28;20034;-82
2022/08/18 07:27:06;;;;;;;8.55;4.68;;;;;;;;;;5049001;28;20091;-84
2022/08/18 07:29:56;;;;;;;5.65;3.45;;;;;;;;;;5037596;28;20478;-84
2022/08/18 07:32:28;;;;;;;5.28;4.13;;;;;;;;;;5038517;28;20133;-83
2022/08/18 07:34:57;;;;;;;5.60;4.10;;;;;;;;;;5037169;28;20044;-82
2022/08/18 07:37:34;;;;;;;5.20;4.13;;;;;;;;;;5038234;28;20033;-83
2022/08/18 07:40:13;;;;;;;5.22;4.20;;;;;;;;;;5038117;28;20029;-82
2022/08/18 07:42:49;;;;;;;6.50;4.32;;;;;;;;;;5038412;28;20034;-83
2022/08/18 07:45:43;;;;;;;5.93;4.20;;;;;;;;;;5038028;28;20037;-83
2022/08/18 07:48:14;;;;;;;5.85;4.25;;;;;;;;;;5038037;28;20489;-83
2022/08/18 07:50:54;;;;;;;9.13;4.28;;;;;;;;;;5037247;28;20037;-83
2022/08/18 07:53:35;;;;;;;4.95;4.13;;;;;;;;;;5037552;28;20038;-83
2022/08/18 07:56:06;;;;;;;5.20;4.00;;;;;;;;;;5037902;28;20040;-83
2022/08/18 07:58:55;;;;;;;5.65;4.18;;;;;;;;;;5037720;28;20494;-83
2022/08/18 08:01:28;;;;;;;7.78;4.28;;;;;;;;;;5038030;28;20040;-83
2022/08/18 08:04:13;;;;;;;5.18;4.20;;;;;;;;;;5020211;28;20029;-83
2022/08/18 08:06:47;;;;;;;4.97;3.80;;;;;;;;;;5038404;28;20029;-84
2022/08/18 08:09:58;;;;;;;5.25;4.38;;;;;;;;;;5037408;28;20033;-83
2022/08/18 08:12:31;;;;;;;5.97;3.75;;;;;;;;;;5036376;28;20080;-84
2022/08/18 08:15:23;;;;;;;6.63;3.95;;;;;;;;;;5038245;28;20038;-83
2022/08/18 08:18:02;;;;;;;4.72;3.70;;;;;;;;;;5038031;28;20072;-82
2022/08/18 08:20:53;;;;;;;5.05;3.75;;;;;;;;;;5038017;28;20036;-83
2022/08/18 08:23:29;;;;;;;6.55;4.03;;;;;;;;;;5036871;28;20049;-83
2022/08/18 08:26:03;;;;;;;4.75;3.50;;;;;;;;;;5037614;28;20037;-83
2022/08/18 08:28:59;;;;;;;4.45;3.67;;;;;;;;;;5037765;28;20029;-83
2022/08/18 08:31:30;;;;;;;6.07;3.97;;;;;;;;;;5037069;28;20552;-83
2022/08/18 08:34:20;;;;;;;6.32;3.63;;;;;;;;;;5036457;28;20052;-82
2022/08/18 08:36:46;;;;;;;6.10;3.70;;;;;;;;;;5037823;28;20387;-83
2022/08/18 08:39:22;;;;;;;5.50;3.90;;;;;;;;;;5037280;28;20072;-83
2022/08/18 08:41:54;;;;;;;4.82;3.88;;;;;;;;;;5035728;28;20033;-83
2022/08/18 08:44:39;;;;;;;4.55;3.70;;;;;;;;;;5036433;28;20037;-82
2022/08/18 08:47:25;;;;;;;7.60;4.40;;;;;;;;;;5036767;28;20033;-83
2022/08/18 08:49:57;;;;;;;5.80;3.60;;;;;;;;;;5036113;28;20038;-83
2022/08/18 08:52:51;;;;;;;4.70;3.60;;;;;;;;;;5035870;28;20041;-83
2022/08/18 08:55:36;;;;;;;4.65;3.25;;;;;;;;;;5037021;28;20587;-83
2022/08/18 08:58:26;;;;;;;5.30;3.67;;;;;;;;;;5035953;28;20505;-83
2022/08/18 09:00:53;;;;;;;5.55;3.72;;;;;;;;;;5035099;28;20099;-83
2022/08/18 09:03:35;;;;;;;4.10;3.40;;;;;;;;;;5036863;28;20037;-83
2022/08/18 09:06:37;;;;;;;7.82;3.47;;;;;;;;;;5037240;28;20039;-83
2022/08/18 09:09:09;;;;;;;4.97;3.50;;;;;;;;;;5035781;28;20037;-83
2022/08/18 09:11:56;;;;;;;5.88;3.35;;;;;;;;;;5036012;28;20099;-83
2022/08/18 09:14:37;;;;;;;6.32;3.50;;;;;;;;;;5036464;28;20037;-84
2022/08/18 09:17:33;;;;;;;6.25;3.20;;;;;;;;;;5036578;28;20399;-83
2022/08/18 09:20:11;;;;;;;4.22;3.40;;;;;;;;;;5037019;28;20071;-83
2022/08/18 09:22:57;;;;;;;5.03;3.65;;;;;;;;;;5037979;28;20057;-83
2022/08/18 09:25:41;;;;;;;4.95;3.60;;;;;;;;;;5038694;28;20053;-83
2022/08/18 09:28:35;;;;;;;4.72;3.30;;;;;;;;;;5035849;28;20084;-83
2022/08/18 09:31:01;;;;;;;6.75;3.53;;;;;;;;;;5034604;28;20071;-83
2022/08/18 09:33:39;;;;;;;6.80;3.63;;;;;;;;;;5035690;28;20073;-83
2022/08/18 09:36:20;;;;;;;6.03;3.30;;;;;;;;;;5019175;28;20029;-83
2022/08/18 09:41:52;;;;;;;3.67;3.20;;;;;;;;;;5037894;28;20040;-83
2022/08/18 09:44:40;;;;;;;4.30;3.20;;;;;;;;;;5037005;28;20413;-83
2022/08/18 09:47:07;;;;;;;4.88;3.30;;;;;;;;;;5020148;28;20077;-83
2022/08/18 09:49:45;;;;;;;6.75;3.33;;;;;;;;;;5037140;28;20022;-83
2022/08/18 09:52:20;;;;;;;5.53;3.28;;;;;;;;;;5036460;28;20099;-83
2022/08/18 09:54:57;;;;;;;5.50;3.65;;;;;;;;;;5035993;28;20044;-83
2022/08/18 09:58:13;;;;;;;5.05;3.65;;;;;;;;;;5037276;28;20041;-83
2022/08/18 10:00:39;;;;;;;6.97;3.70;;;;;;;;;;5015397;28;20049;-83
2022/08/18 10:03:12;;;;;;;5.55;3.40;;;;;;;;;;5037640;28;20125;-83
2022/08/18 10:05:39;;;;;;;6.60;3.33;;;;;;;;;;5038089;28;20093;-83
2022/08/18 10:08:04;;;;;;;3.58;3.00;;;;;;;;;;5037476;28;20025;-83
2022/08/18 10:10:40;;;;;;;4.25;3.63;;;;;;;;;;5037278;28;20048;-83
2022/08/18 10:13:39;;;;;;;5.50;3.40;;;;;;;;;;5038153;28;20040;-83
2022/08/18 10:16:35;;;;;;;3.60;3.10;;;;;;;;;;5037835;28;20579;-83
2022/08/18 10:19:06;;;;;;;5.38;3.20;;;;;;;;;;5038328;28;20113;-84
2022/08/18 10:21:55;;;;;;;4.22;3.38;;;;;;;;;;5036975;28;20117;-83
2022/08/18 10:24:22;;;;;;;4.43;3.30;;;;;;;;;;5037376;28;20051;-83
2022/08/18 10:26:47;;;;;;;5.13;3.38;;;;;;;;;;5037576;28;20037;-84
2022/08/18 10:29:31;;;;;;;6.30;3.20;;;;;;;;;;5037918;28;20048;-83
2022/08/18 10:31:57;;;;;;;;;;;;;;;;;;5038067;28;20042;-83
2022/08/18 10:34:41;;;;;;;5.47;3.40;;;;;;;;;;5037949;28;19924;-83
2022/08/18 10:37:31;;;;;;;6.00;3.30;;;;;;;;;;5037717;28;20498;-84
2022/08/18 10:40:21;;;;;;;5.03;3.20;;;;;;;;;;5038265;28;20675;-84
2022/08/18 10:42:52;;;;;;;3.60;3.17;;;;;;;;;;5036870;28;20133;-83
2022/08/18 10:45:29;;;;;;;5.13;3.50;;;;;;;;;;5037373;28;20093;-83
2022/08/18 10:48:04;;;;;;;4.35;3.63;;;;;;;;;;5036150;28;20034;-84
2022/08/18 10:50:52;;;;;;;6.75;3.58;;;;;;;;;;5038055;28;20059;-83
2022/08/18 10:53:41;;;;;;;4.70;3.20;;;;;;;;;;5038386;28;20044;-84
2022/08/18 10:56:46;;;;;;;8.07;3.58;;;;;;;;;;5037559;28;20044;-84
2022/08/18 10:59:34;;;;;;;5.53;3.30;;;;;;;;;;5033844;28;20048;-84
2022/08/18 11:02:18;;;;;;;5.95;3.50;;;;;;;;;;5037247;28;20486;-83
2022/08/18 11:04:50;;;;;;;6.45;3.55;;;;;;;;;;5037742;28;20033;-83
2022/08/18 11:07:23;;;;;;;6.73;3.80;;;;;;;;;;5038289;28;20056;-84
2022/08/18 11:09:50;;;;;;;;;;;;;;;;;;5039704;28;20061;-83
2022/08/18 11:12:51;;;;;;;4.13;3.35;;;;;;;;;;5041941;28;19913;-83
2022/08/18 11:15:24;;;;;;;5.65;3.60;;;;;;;;;;5041817;28;20060;-83
2022/08/18 11:18:04;;;;;;;8.35;3.50;;;;;;;;;;5042171;28;20038;-83
2022/08/18 11:20:32;;;;;;;4.95;3.40;;;;;;;;;;5041663;28;20045;-84
2022/08/18 11:23:01;;;;;;;4.03;3.28;;;;;;;;;;5041821;28;20041;-83
2022/08/18 11:25:29;;;;;;;5.68;3.72;;;;;;;;;;5040449;28;20448;-83
2022/08/18 11:27:56;;;;;;;4.78;3.33;;;;;;;;;;5040753;28;20054;-84
2022/08/18 11:30:30;;;;;;;5.10;3.53;;;;;;;;;;5040605;28;20048;-83
2022/08/18 11:32:56;;;;;;;4.85;3.58;;;;;;;;;;5041059;28;20041;-84
2022/08/18 11:35:42;;;;;;;5.68;3.60;;;;;;;;;;5041628;28;20022;-84
2022/08/18 11:38:12;;;;;;;5.53;3.42;;;;;;;;;;5041833;28;20095;-84
2022/08/18 11:40:44;;;;;;;5.82;3.60;;;;;;;;;;5042078;28;20044;-83
2022/08/18 11:43:29;;;;;;;7.22;3.60;;;;;;;;;;5024900;28;20468;-84
2022/08/18 11:46:12;;;;;;;7.50;3.70;;;;;;;;;;5040262;28;20136;-83
2022/08/18 11:48:49;;;;;;;5.25;3.65;;;;;;;;;;5040955;28;20040;-85
2022/08/18 11:51:16;;;;;;;4.63;3.53;;;;;;;;;;5040094;28;20041;-83
2022/08/18 11:53:47;;;;;;;5.05;3.58;;;;;;;;;;5040150;28;20037;-84
2022/08/18 11:56:13;;;;;;;4.35;3.30;;;;;;;;;;5039851;28;20105;-84
2022/08/18 11:58:44;;;;;;;4.95;3.70;;;;;;;;;;5041163;28;20072;-83
2022/08/18 12:01:33;;;;;;;4.07;3.20;;;;;;;;;;5041234;28;20053;-84
2022/08/18 12:04:36;;;;;;;4.85;3.10;;;;;;;;;;5041110;28;20022;-83
2022/08/18 12:07:15;;;;;;;6.18;3.30;;;;;;;;;;5039934;28;20042;-83
2022/08/18 12:09:45;;;;;;;4.28;3.20;;;;;;;;;;5040508;28;20034;-84
2022/08/18 12:12:22;;;;;;;5.20;3.42;;;;;;;;;;5040825;28;20045;-86
2022/08/18 12:14:57;;;;;;;7.40;3.40;;;;;;;;;;5039832;28;20033;-86
2022/08/18 12:17:23;;;;;;;4.18;3.35;;;;;;;;;;5041591;28;20037;-83
2022/08/18 12:19:49;;;;;;;7.75;3.95;;;;;;;;;;5040166;28;20033;-85
2022/08/18 12:22:17;;;;;;;4.07;3.35;;;;;;;;;;5041375;28;20040;-83
2022/08/18 12:24:45;;;;;;;6.70;3.75;;;;;;;;;;5040489;28;20037;-84
2022/08/18 12:27:14;;;;;;;5.78;3.83;;;;;;;;;;5039854;28;20041;-84
2022/08/18 12:29:40;;;;;;;7.28;3.80;;;;;;;;;;5040533;28;20037;-85
2022/08/18 12:32:06;;;;;;;4.30;3.63;;;;;;;;;;5038713;28;20477;-85
2022/08/18 12:34:32;;;;;;;6.47;3.95;;;;;;;;;;5040147;28;20079;-85
2022/08/18 12:37:02;;;;;;;5.88;4.00;;;;;;;;;;5041192;28;20521;-84
2022/08/18 12:39:29;;;;;;;7.57;3.97;;;;;;;;;;5041602;28;20160;-85
2022/08/18 12:41:56;;;;;;;5.68;4.22;;;;;;;;;;5041045;28;20038;-85
2022/08/18 12:44:22;;;;;;;5.40;3.92;;;;;;;;;;5041218;28;20048;-85
2022/08/18 12:46:48;;;;;;;6.10;3.92;;;;;;;;;;5040501;28;20124;-85
2022/08/18 12:49:16;;;;;;;5.80;3.58;;;;;;;;;;5041584;28;20037;-85
2022/08/18 12:51:42;;;;;;;5.93;3.53;;;;;;;;;;5040932;28;20038;-84
2022/08/18 12:54:08;;;;;;;5.97;3.67;;;;;;;;;;5039837;28;20040;-84
2022/08/18 12:56:34;;;;;;;5.28;3.67;;;;;;;;;;5039058;28;20038;-84
2022/08/18 12:59:01;;;;;;;8.65;3.83;;;;;;;;;;5040291;28;20037;-84
2022/08/18 13:01:28;;;;;;;5.35;3.78;;;;;;;;;;5040336;28;20048;-84
2022/08/18 13:03:55;;;;;;;5.13;3.72;;;;;;;;;;5040840;28;20041;-84
2022/08/18 13:06:22;;;;;;;6.57;4.00;;;;;;;;;;5040293;28;20036;-84
2022/08/18 13:08:51;;;;;;;5.15;3.80;;;;;;;;;;5040358;28;20063;-84
2022/08/18 13:11:21;;;;;;;4.95;4.20;;;;;;;;;;5039925;28;20091;-84
2022/08/18 13:13:47;;;;;;;5.53;4.13;;;;;;;;;;5039270;28;20033;-84
2022/08/18 13:16:13;;;;;;;6.75;4.30;;;;;;;;;;5037976;28;20037;-85
2022/08/18 13:18:40;;;;;;;10.38;4.40;;;;;;;;;;5040304;28;20041;-84
2022/08/18 13:21:07;;;;;;;7.40;5.07;;;;;;;;;;5039771;28;20037;-84
2022/08/18 13:23:33;;;;;;;10.07;4.75;;;;;;;;;;5039723;28;20037;-84
2022/08/18 13:26:00;;;;;;;5.50;4.40;;;;;;;;;;5039567;28;20037;-84
2022/08/18 13:28:26;;;;;;;5.38;4.47;;;;;;;;;;5040586;28;20099;-84
2022/08/18 13:30:52;;;;;;;6.00;4.43;;;;;;;;;;5041322;28;20046;-84
2022/08/18 13:33:17;;;;;;;5.95;4.40;;;;;;;;;;5037184;28;20044;-84
2022/08/18 13:35:45;;;;;;;5.32;4.35;;;;;;;;;;5039842;28;20083;-84
2022/08/18 13:38:18;;;;;;;6.80;4.30;;;;;;;;;;5040297;28;20033;-85
2022/08/18 13:40:47;;;;;;;7.13;3.80;;;;;;;;;;5038846;28;20071;-85
2022/08/18 13:43:14;;;;;;;6.05;4.50;;;;;;;;;;5038958;28;20074;-85
2022/08/18 13:45:43;;;;;;;6.03;4.20;;;;;;;;;;5040069;28;20025;-85
2022/08/18 13:48:12;;;;;;;6.60;4.22;;;;;;;;;;5038260;28;20041;-85
2022/08/18 13:50:39;;;;;;;12.45;4.40;;;;;;;;;;5038542;28;20052;-85
2022/08/18 13:53:18;;;;;;;6.20;4.15;;;;;;;;;;5037977;28;20037;-84
2022/08/18 13:55:44;;;;;;;5.75;4.03;;;;;;;;;;5039635;28;20034;-85
2022/08/18 13:58:11;;;;;;;8.38;4.40;;;;;;;;;;5037026;28;20025;-85
2022/08/18 14:00:38;;;;;;;8.18;4.40;;;;;;;;;;5036841;28;20040;-85
2022/08/18 14:03:05;;;;;;;6.47;4.22;;;;;;;;;;5037859;28;20037;-85
2022/08/18 14:05:31;;;;;;;7.70;4.45;;;;;;;;;;5038828;28;20036;-85
2022/08/18 14:07:57;;;;;;;7.85;4.50;;;;;;;;;;5039705;28;20410;-85
2022/08/18 14:10:23;;;;;;;6.78;4.15;;;;;;;;;;5039407;28;20069;-85
2022/08/18 14:12:53;;;;;;;7.57;4.20;;;;;;;;;;5041066;28;20033;-85
2022/08/18 14:15:19;;;;;;;5.20;4.38;;;;;;;;;;5041763;28;20045;-83
2022/08/18 14:17:45;;;;;;;7.20;4.15;;;;;;;;;;5043338;28;20044;-84
2022/08/18 14:28:28;;;;;;;7.35;4.32;;;;;;;;;;5035426;28;20033;-85
2022/08/18 14:30:56;;;;;;;6.93;4.55;;;;;;;;;;5033899;28;20029;-85
2022/08/18 14:33:23;;;;;;;6.95;5.05;;;;;;;;;;5034658;28;20100;-85
2022/08/18 14:35:49;;;;;;;5.72;4.57;;;;;;;;;;5033703;28;20379;-83
2022/08/18 14:38:15;;;;;;;7.45;4.90;;;;;;;;;;5034361;28;20045;-83
2022/08/18 14:40:43;;;;;;;7.57;4.80;;;;;;;;;;5034521;28;20033;-84
2022/08/18 14:43:10;;;;;;;7.68;4.85;;;;;;;;;;5034952;28;20087;-83
2022/08/18 14:45:36;;;;;;;5.97;4.30;;;;;;;;;;5043749;28;20025;-84
2022/08/18 14:48:03;;;;;;;10.15;4.97;;;;;;;;;;5040255;28;20062;-83
2022/08/18 14:50:29;;;;;;;8.38;4.88;;;;;;;;;;5049180;28;20044;-82
2022/08/18 14:52:54;;;;;;;9.48;5.00;;;;;;;;;;5049388;28;20038;-83
2022/08/18 14:55:20;;;;;;;9.23;5.20;;;;;;;;;;5048851;28;20081;-83
2022/08/18 14:57:45;;;;;;;9.05;5.85;;;;;;;;;;5050259;28;20083;-83
2022/08/18 15:00:17;;;;;;;7.47;4.90;;;;;;;;;;5050348;28;20033;-83
2022/08/18 15:02:45;;;;;;;6.07;4.70;;;;;;;;;;5048356;28;20045;-83
2022/08/18 15:05:12;;;;;;;5.60;4.80;;;;;;;;;;5048359;28;20037;-83
2022/08/18 15:07:38;;;;;;;5.82;4.50;;;;;;;;;;5048359;28;20029;-83
2022/08/18 15:10:06;;;;;;;7.15;4.88;;;;;;;;;;5035799;28;20040;-83
2022/08/18 15:12:32;;;;;;;5.32;4.80;;;;;;;;;;5034436;28;20451;-85
2022/08/18 15:14:58;;;;;;;9.10;5.00;;;;;;;;;;5042592;28;20056;-85
2022/08/18 15:17:26;;;;;;;6.00;4.85;;;;;;;;;;5042752;28;20034;-85
2022/08/18 15:19:52;;;;;;;7.13;4.82;;;;;;;;;;5040093;28;20044;-85
2022/08/18 15:27:48;;;;;;;7.25;4.90;;;;;;;;;;5029853;28;20478;-88
2022/08/18 15:30:15;;;;;;;6.80;5.38;;;;;;;;;;5028626;28;20109;-89
2022/08/18 15:32:45;;;;;;;7.45;6.20;;;;;;;;;;5026393;28;20044;-90
2022/08/18 15:35:15;;;;;;;12.63;5.40;;;;;;;;;;5034649;28;20026;-89
2022/08/18 15:37:42;;;;;;;9.93;5.88;;;;;;;;;;5036071;28;20052;-87
2022/08/18 15:40:14;;;;;;;9.48;5.68;;;;;;;;;;5037659;28;20115;-88